Archival Weather

Snohomish County (Paine Fld)

Everett, Washington (KPAE)

Report from: Sunday, November 5, 2023 4:53 AM PST
Current time: Monday, June 24, 2024 3:57 AM PDT

Current weather – Weather history – Daily summaries
Weather forecast

Temperature11.1°C (52.0°F)
Dew point8.9°C (48.0°F)
Winds 10 kts (5.1 m/s, 11.5 mph) South (170°)
Visibility10 mi. (16.1 km)
Clouds Few clouds 6,000 ft. (1,829 m)
Ceiling: Overcast 8,500 ft. (2,591 m)
Altimeter29.86 in.Hg (1011 mB)
Relative humidity86 %
Density altitude-230 ft. (-70 m)
Sea-level pressure101.1 kPa (1011 mB, 29.86 in.Hg)
Remarks Fully automated report
Automated weather observing station with precipitation discriminator
Flight conditions Visual Meteorological Conditions
Raw dataKPAE 051253Z AUTO 17010KT 10SM FEW060 OVC085 11/09 A2986 RMK AO2 SLP111 T01110089
An error has occurred. This application may no longer respond until reloaded. Reload 🗙